createdAt,value
2018-07-24T00:02:46.342Z,23.00
2018-07-24T00:05:13.804Z,22.90
2018-07-24T00:07:41.328Z,22.90
2018-07-24T00:10:08.900Z,21.60
2018-07-24T00:12:36.349Z,22.90
2018-07-24T00:15:04.728Z,22.90
2018-07-24T00:17:32.289Z,22.90
2018-07-24T00:19:59.742Z,22.80
2018-07-24T00:22:27.356Z,22.80
2018-07-24T00:24:55.541Z,22.80
2018-07-24T00:27:23.069Z,22.80
2018-07-24T00:32:18.110Z,22.80
2018-07-24T00:37:12.930Z,22.80
2018-07-24T00:39:40.448Z,22.70
2018-07-24T00:44:36.405Z,22.80
2018-07-24T00:47:03.909Z,22.70
2018-07-24T00:49:31.397Z,22.70
2018-07-24T00:51:58.854Z,22.70
2018-07-24T00:54:26.393Z,22.70
2018-07-24T00:56:53.879Z,22.70
2018-07-24T01:01:48.894Z,22.70
2018-07-24T01:06:43.837Z,22.60
2018-07-24T01:09:11.471Z,22.60
2018-07-24T01:14:06.730Z,22.60
2018-07-24T01:16:34.220Z,22.50
2018-07-24T01:19:01.813Z,22.50
2018-07-24T01:28:51.641Z,22.50
2018-07-24T01:31:19.149Z,22.50
2018-07-24T01:33:46.651Z,22.40
2018-07-24T01:36:14.224Z,22.40
2018-07-24T01:38:41.705Z,22.40
2018-07-24T01:41:09.149Z,22.40
2018-07-24T01:43:36.707Z,22.40
2018-07-24T01:46:04.253Z,22.40
2018-07-24T01:48:31.788Z,22.40
2018-07-24T01:53:26.819Z,22.40
2018-07-24T01:55:54.283Z,22.30
2018-07-24T01:58:28.471Z,22.30
2018-07-24T02:01:00.495Z,22.30
2018-07-24T02:03:27.974Z,22.30
2018-07-24T02:05:55.546Z,22.30
2018-07-24T02:08:22.997Z,22.30
2018-07-24T02:10:50.513Z,22.10
2018-07-24T02:13:17.982Z,22.30
2018-07-24T02:15:45.517Z,22.30
2018-07-24T02:18:12.979Z,22.20
2018-07-24T02:20:40.559Z,22.30
2018-07-24T02:23:08.190Z,22.20
2018-07-24T02:25:35.713Z,22.20
2018-07-24T02:30:30.590Z,22.20
2018-07-24T02:32:58.123Z,22.20
2018-07-24T02:35:25.620Z,22.20
2018-07-24T02:37:53.156Z,22.10
2018-07-24T02:40:20.711Z,22.20
2018-07-24T02:42:48.263Z,22.20
2018-07-24T02:45:15.791Z,24.90
2018-07-24T02:47:44.366Z,22.20
2018-07-24T02:50:11.956Z,22.10
2018-07-24T02:52:39.375Z,22.10
2018-07-24T02:55:06.929Z,22.10
2018-07-24T03:00:01.800Z,22.10
2018-07-24T03:02:29.353Z,22.10
2018-07-24T03:04:56.929Z,22.10
2018-07-24T03:07:24.439Z,22.00
2018-07-24T03:09:51.909Z,22.00
2018-07-24T03:12:19.399Z,22.10
2018-07-24T03:14:47.864Z,22.00
2018-07-24T03:17:15.403Z,22.00
2018-07-24T03:19:42.917Z,22.00
2018-07-24T03:22:10.412Z,22.00
2018-07-24T03:24:37.918Z,22.00
2018-07-24T03:27:05.476Z,22.00
2018-07-24T03:29:37.494Z,22.00
2018-07-24T03:32:05.049Z,21.90
2018-07-24T03:34:32.569Z,22.00
2018-07-24T03:37:00.086Z,21.90
2018-07-24T03:39:27.611Z,21.90
2018-07-24T03:41:55.130Z,21.90
2018-07-24T03:44:22.598Z,21.90
2018-07-24T03:46:50.141Z,21.90
2018-07-24T03:49:18.260Z,21.90
2018-07-24T03:51:45.774Z,21.90
2018-07-24T03:54:13.290Z,21.90
2018-07-24T03:56:40.766Z,21.90
2018-07-24T03:59:08.234Z,21.80
2018-07-24T04:01:35.769Z,21.80
2018-07-24T04:04:03.352Z,21.80
2018-07-24T04:06:30.891Z,22.10
2018-07-24T04:08:58.390Z,21.80
2018-07-24T04:11:25.878Z,21.80
2018-07-24T04:13:53.401Z,21.80
2018-07-24T04:16:20.897Z,21.80
2018-07-24T04:18:49.267Z,21.70
2018-07-24T04:21:17.908Z,21.80
2018-07-24T04:23:46.037Z,21.70
2018-07-24T04:26:13.539Z,21.70
2018-07-24T04:28:42.582Z,21.70
2018-07-24T04:31:10.984Z,21.70
2018-07-24T04:33:38.493Z,21.70
2018-07-24T04:36:06.015Z,21.70
2018-07-24T04:38:34.030Z,21.70
2018-07-24T04:41:01.524Z,21.70
2018-07-24T04:43:28.992Z,21.70
2018-07-24T04:45:56.505Z,21.80
2018-07-24T04:48:24.054Z,21.70
2018-07-24T04:53:19.423Z,21.80
2018-07-24T04:55:46.911Z,21.70
2018-07-24T04:58:14.459Z,21.70
2018-07-24T05:00:41.956Z,21.80
2018-07-24T05:03:09.488Z,21.80
2018-07-24T05:05:36.953Z,21.80
2018-07-24T05:10:32.463Z,21.80
2018-07-24T05:12:59.984Z,20.80
2018-07-24T05:15:27.585Z,21.80
2018-07-24T05:17:56.151Z,21.80
2018-07-24T05:20:23.645Z,21.80
2018-07-24T05:22:51.159Z,21.80
2018-07-24T05:25:18.797Z,21.80
2018-07-24T05:27:46.563Z,21.90
2018-07-24T05:30:14.117Z,21.90
2018-07-24T05:32:41.589Z,21.90
2018-07-24T05:35:09.065Z,21.90
2018-07-24T05:37:36.541Z,21.90
2018-07-24T05:40:04.248Z,22.00
2018-07-24T05:42:31.795Z,21.80
2018-07-24T05:44:59.269Z,22.00
2018-07-24T05:47:26.851Z,22.00
2018-07-24T05:49:54.426Z,22.10
2018-07-24T05:52:21.957Z,22.10
2018-07-24T05:54:49.487Z,22.10
2018-07-24T05:57:16.959Z,22.20
2018-07-24T05:59:45.160Z,20.20
2018-07-24T06:02:12.829Z,22.20
2018-07-24T06:04:40.559Z,20.30
2018-07-24T06:07:08.130Z,22.30
2018-07-24T06:09:35.663Z,22.40
2018-07-24T06:12:03.217Z,22.40
2018-07-24T06:14:31.062Z,22.40
2018-07-24T06:16:58.623Z,22.50
2018-07-24T06:19:26.131Z,24.30
2018-07-24T06:21:53.724Z,22.50
2018-07-24T06:24:21.247Z,22.60
2018-07-24T06:26:48.978Z,22.60
2018-07-24T06:29:16.594Z,22.70
2018-07-24T06:31:44.098Z,22.70
2018-07-24T06:34:11.622Z,22.70
2018-07-24T06:39:08.928Z,22.80
2018-07-24T06:41:37.614Z,22.90
2018-07-24T06:44:09.056Z,22.70
2018-07-24T06:46:36.719Z,22.90
2018-07-24T06:49:04.288Z,23.00
2018-07-24T06:51:31.915Z,23.00
2018-07-24T06:53:59.367Z,23.10
2018-07-24T06:58:54.495Z,23.20
2018-07-24T07:01:22.017Z,23.20
2018-07-24T07:03:49.665Z,23.40
2018-07-24T07:08:53.939Z,23.50
2018-07-24T07:11:21.488Z,23.60
2018-07-24T07:13:48.952Z,23.60
2018-07-24T07:18:43.873Z,23.70
2018-07-24T07:21:11.635Z,23.80
2018-07-24T07:23:39.189Z,23.90
2018-07-24T07:26:06.764Z,23.90
2018-07-24T07:28:35.033Z,24.00
2018-07-24T07:31:02.545Z,24.10
2018-07-24T07:33:30.112Z,24.20
2018-07-24T07:35:57.618Z,24.20
2018-07-24T07:38:25.080Z,24.10
2018-07-24T07:40:52.587Z,24.40
2018-07-24T07:43:20.063Z,24.50
2018-07-24T07:48:14.975Z,24.70
2018-07-24T07:53:10.110Z,24.80
2018-07-24T07:55:37.598Z,25.00
2018-07-24T07:58:05.215Z,25.10
2018-07-24T08:03:00.099Z,25.30
2018-07-24T08:05:27.548Z,25.40
2018-07-24T08:07:55.043Z,25.50
2018-07-24T08:10:22.569Z,25.60
2018-07-24T08:12:51.585Z,25.60
2018-07-24T08:15:19.205Z,25.70
2018-07-24T08:17:46.700Z,25.90
2018-07-24T08:20:14.364Z,26.00
2018-07-24T08:25:11.732Z,26.20
2018-07-24T08:30:06.679Z,26.40
2018-07-24T08:32:34.190Z,26.50
2018-07-24T08:35:01.629Z,26.50
2018-07-24T08:37:29.187Z,26.60
2018-07-24T08:39:56.727Z,26.90
2018-07-24T08:42:25.056Z,26.80
2018-07-24T08:47:19.990Z,27.20
2018-07-24T08:49:47.462Z,27.40
2018-07-24T08:52:14.950Z,27.70
2018-07-24T08:54:42.704Z,27.80
2018-07-24T08:57:09.949Z,28.00
2018-07-24T08:59:37.430Z,28.20
2018-07-24T09:02:04.944Z,28.30
2018-07-24T09:04:32.521Z,28.60
2018-07-24T09:07:00.095Z,28.80
2018-07-24T09:09:27.610Z,29.00
2018-07-24T09:11:55.202Z,29.30
2018-07-24T09:14:22.757Z,29.60
2018-07-24T09:16:50.244Z,29.80
2018-07-24T09:21:45.166Z,30.30
2018-07-24T09:24:12.715Z,30.50
2018-07-24T09:26:40.163Z,30.80
2018-07-24T09:29:07.680Z,31.00
2018-07-24T09:31:35.316Z,31.30
2018-07-24T09:34:02.854Z,31.60
2018-07-24T09:36:30.378Z,31.90
2018-07-24T09:38:57.900Z,32.30
2018-07-24T09:41:25.436Z,32.70
2018-07-24T09:43:53.332Z,33.10
2018-07-24T09:46:20.818Z,33.40
2018-07-24T09:48:48.398Z,33.80
2018-07-24T09:51:15.968Z,33.80
2018-07-24T09:53:43.490Z,32.50
2018-07-24T09:56:10.998Z,34.60
2018-07-24T09:58:38.528Z,34.70
2018-07-24T10:01:11.897Z,35.00
2018-07-24T10:03:39.755Z,35.20
2018-07-24T10:06:07.256Z,35.50
2018-07-24T10:08:34.836Z,35.80
2018-07-24T10:11:02.351Z,36.10
2018-07-24T10:13:29.833Z,36.30
2018-07-24T10:18:24.780Z,36.70
2018-07-24T10:20:52.253Z,36.90
2018-07-24T10:23:19.762Z,37.10
2018-07-24T10:25:47.383Z,37.30
2018-07-24T10:28:14.870Z,37.60
2018-07-24T10:30:42.433Z,37.90
2018-07-24T10:40:40.569Z,38.80
2018-07-24T10:43:08.237Z,38.80
2018-07-24T10:48:03.067Z,38.60
2018-07-24T10:50:30.608Z,38.40
2018-07-24T10:52:58.111Z,38.20
2018-07-24T10:55:25.606Z,37.90
2018-07-24T11:00:20.660Z,37.40
2018-07-24T11:02:48.123Z,37.20
2018-07-24T11:05:15.746Z,36.90
2018-07-24T11:07:43.268Z,36.70
2018-07-24T11:10:10.855Z,36.20
2018-07-24T11:15:05.984Z,36.20
2018-07-24T11:17:33.518Z,36.00
2018-07-24T11:20:01.317Z,35.90
2018-07-24T11:22:28.961Z,35.60
2018-07-24T11:24:56.410Z,35.60
2018-07-24T11:27:24.071Z,35.50
2018-07-24T11:29:51.546Z,35.50
2018-07-24T11:32:19.312Z,35.30
2018-07-24T11:34:46.901Z,35.00
2018-07-24T11:37:14.396Z,35.00
2018-07-24T11:42:09.725Z,34.90
2018-07-24T11:47:04.874Z,34.70
2018-07-24T11:49:32.613Z,34.60
2018-07-24T11:52:00.102Z,34.40
2018-07-24T11:54:27.764Z,34.40
2018-07-24T11:56:55.370Z,34.40
2018-07-24T11:59:22.999Z,31.20
2018-07-24T12:01:50.529Z,34.30
2018-07-24T12:04:18.178Z,34.30
2018-07-24T12:06:46.230Z,34.30
2018-07-24T12:09:13.887Z,35.90
2018-07-24T12:11:41.925Z,36.30
2018-07-24T12:14:10.203Z,34.40
2018-07-24T12:16:37.758Z,34.40
2018-07-24T12:19:06.584Z,34.40
2018-07-24T12:26:29.620Z,34.30
2018-07-24T12:28:57.166Z,34.20
2018-07-24T12:31:24.724Z,34.10
2018-07-24T12:33:52.298Z,33.50
2018-07-24T12:36:19.840Z,34.10
2018-07-24T12:38:47.342Z,34.10
2018-07-24T12:41:14.818Z,34.10
2018-07-24T12:43:42.364Z,34.10
2018-07-24T12:46:10.230Z,32.40
2018-07-24T12:48:37.725Z,34.10
2018-07-24T12:51:05.342Z,34.10
2018-07-24T12:53:32.901Z,34.20
2018-07-24T12:56:00.389Z,34.10
2018-07-24T12:58:28.723Z,34.20
2018-07-24T13:00:56.203Z,34.30
2018-07-24T13:05:51.212Z,34.30
2018-07-24T13:08:18.827Z,34.40
2018-07-24T13:10:46.466Z,34.40
2018-07-24T13:13:13.959Z,34.40
2018-07-24T13:15:41.484Z,34.40
2018-07-24T13:18:09.034Z,34.40
2018-07-24T13:20:36.559Z,34.50
2018-07-24T13:23:04.322Z,34.50
2018-07-24T13:25:31.790Z,34.40
2018-07-24T13:27:59.323Z,34.40
2018-07-24T13:30:26.775Z,34.40
2018-07-24T13:32:54.274Z,34.40
2018-07-24T13:37:49.249Z,34.50
2018-07-24T13:40:16.842Z,34.40
2018-07-24T13:42:44.606Z,32.80
2018-07-24T13:47:39.590Z,34.50
2018-07-24T13:50:07.195Z,34.50
2018-07-24T13:52:34.738Z,34.40
2018-07-24T13:57:29.693Z,34.50
2018-07-24T13:59:57.216Z,34.40
2018-07-24T14:02:24.774Z,34.40
2018-07-24T14:07:19.747Z,34.40
2018-07-24T14:09:47.414Z,34.40
2018-07-24T14:12:14.948Z,34.40
2018-07-24T14:14:42.448Z,34.30
2018-07-24T14:19:38.483Z,34.40
2018-07-24T14:22:06.070Z,34.30
2018-07-24T14:24:33.591Z,34.40
2018-07-24T14:27:01.116Z,34.30
2018-07-24T14:29:28.614Z,34.40
2018-07-24T14:31:56.205Z,34.40
2018-07-24T14:34:23.674Z,34.40
2018-07-24T14:36:51.139Z,34.40
2018-07-24T14:39:18.652Z,34.40
2018-07-24T14:44:13.634Z,34.30
2018-07-24T14:46:41.125Z,34.10
2018-07-24T14:51:36.098Z,34.00
2018-07-24T14:54:03.593Z,33.90
2018-07-24T14:58:58.548Z,33.80
2018-07-24T15:01:26.131Z,33.80
2018-07-24T15:03:53.678Z,32.70
2018-07-24T15:06:21.239Z,33.70
2018-07-24T15:08:49.738Z,33.70
2018-07-24T15:11:17.596Z,33.80
2018-07-24T15:13:45.111Z,36.00
2018-07-24T15:16:12.612Z,33.80
2018-07-24T15:18:40.115Z,33.80
2018-07-24T15:21:07.626Z,33.80
2018-07-24T15:23:35.753Z,33.80
2018-07-24T15:26:03.764Z,33.80
2018-07-24T15:28:31.362Z,33.80
2018-07-24T15:30:58.859Z,33.80
2018-07-24T15:33:26.335Z,33.70
2018-07-24T15:35:53.874Z,33.80
2018-07-24T15:38:21.386Z,33.80
2018-07-24T15:43:16.885Z,33.80
2018-07-24T15:45:44.436Z,32.10
2018-07-24T15:48:11.938Z,33.70
2018-07-24T15:50:39.410Z,33.70
2018-07-24T15:53:07.050Z,33.60
2018-07-24T15:55:34.554Z,33.60
2018-07-24T15:58:02.174Z,33.70
2018-07-24T16:00:29.656Z,33.70
2018-07-24T16:02:57.236Z,33.70
2018-07-24T16:05:24.822Z,33.70
2018-07-24T16:07:52.335Z,34.50
2018-07-24T16:10:19.832Z,33.70
2018-07-24T16:12:48.336Z,33.70
2018-07-24T16:17:43.253Z,33.70
2018-07-24T16:22:38.300Z,33.60
2018-07-24T16:25:05.942Z,33.60
2018-07-24T16:27:33.493Z,33.40
2018-07-24T16:30:00.996Z,33.40
2018-07-24T16:32:28.502Z,33.40
2018-07-24T16:37:23.465Z,33.40
2018-07-24T16:39:50.970Z,33.30
2018-07-24T16:44:45.948Z,33.20
2018-07-24T16:47:13.446Z,33.10
2018-07-24T16:52:08.355Z,33.00
2018-07-24T16:54:35.913Z,32.90
2018-07-24T17:01:58.539Z,32.70
2018-07-24T17:04:26.058Z,32.60
2018-07-24T17:06:53.567Z,32.30
2018-07-24T17:09:21.101Z,32.50
2018-07-24T17:11:48.655Z,32.40
2018-07-24T17:14:16.169Z,31.50
2018-07-24T17:19:11.113Z,32.20
2018-07-24T17:21:38.667Z,32.10
2018-07-24T17:24:06.189Z,31.90
2018-07-24T17:26:33.848Z,31.90
2018-07-24T17:29:01.371Z,31.80
2018-07-24T17:31:28.899Z,31.80
2018-07-24T17:33:56.364Z,31.70
2018-07-24T17:36:23.932Z,31.60
2018-07-24T17:38:51.520Z,31.50
2018-07-24T17:41:19.086Z,31.40
2018-07-24T17:43:46.798Z,31.30
2018-07-24T17:46:14.327Z,31.20
2018-07-24T17:51:09.190Z,31.20
2018-07-24T17:53:36.812Z,31.10
2018-07-24T17:56:04.356Z,31.10
2018-07-24T18:00:59.370Z,31.00
2018-07-24T18:05:54.328Z,30.90
2018-07-24T18:08:21.802Z,30.80
2018-07-24T18:10:49.380Z,30.70
2018-07-24T18:13:16.916Z,30.80
2018-07-24T18:15:44.425Z,30.60
2018-07-24T18:18:12.042Z,30.50
2018-07-24T18:20:39.584Z,30.50
2018-07-24T18:23:07.658Z,30.40
2018-07-24T18:25:35.215Z,30.40
2018-07-24T18:28:02.783Z,30.30
2018-07-24T18:30:31.379Z,30.30
2018-07-24T18:32:58.887Z,30.30
2018-07-24T18:35:26.432Z,30.20
2018-07-24T18:40:21.416Z,30.10
2018-07-24T18:42:48.966Z,28.80
2018-07-24T18:45:16.519Z,30.00
2018-07-24T18:47:44.100Z,29.90
2018-07-24T18:50:11.656Z,29.90
2018-07-24T18:52:39.231Z,29.90
2018-07-24T18:55:06.795Z,29.80
2018-07-24T19:00:01.853Z,29.70
2018-07-24T19:02:29.758Z,29.60
2018-07-24T19:04:57.422Z,29.60
2018-07-24T19:09:52.414Z,29.60
2018-07-24T19:12:19.998Z,28.40
2018-07-24T19:14:47.622Z,29.50
2018-07-24T19:17:15.218Z,29.30
2018-07-24T19:19:42.884Z,29.30
2018-07-24T19:22:10.482Z,29.30
2018-07-24T19:24:38.170Z,29.20
2018-07-24T19:27:05.922Z,27.90
2018-07-24T19:29:33.801Z,29.10
2018-07-24T19:36:57.714Z,29.00
2018-07-24T19:39:25.506Z,29.00
2018-07-24T19:41:53.333Z,28.00
2018-07-24T19:44:21.297Z,28.90
2018-07-24T19:46:49.097Z,27.40
2018-07-24T19:49:16.893Z,28.80
2018-07-24T19:51:44.593Z,28.70
2018-07-24T19:54:12.296Z,25.90
2018-07-24T19:56:40.028Z,26.70
2018-07-24T19:59:09.110Z,28.50
2018-07-24T20:01:36.976Z,28.60
2018-07-24T20:06:32.807Z,28.50
2018-07-24T20:09:02.837Z,28.40
2018-07-24T20:11:30.583Z,28.30
2018-07-24T20:13:58.597Z,28.30
2018-07-24T20:16:26.390Z,28.30
2018-07-24T20:21:21.518Z,28.20
2018-07-24T20:23:49.620Z,28.20
2018-07-24T20:26:18.877Z,26.40
2018-07-24T20:28:46.630Z,28.00
2018-07-24T20:31:14.386Z,28.10
2018-07-24T20:33:42.017Z,27.90
2018-07-24T20:36:09.705Z,27.90
2018-07-24T20:38:37.433Z,27.90
2018-07-24T20:41:05.144Z,27.90
2018-07-24T20:43:32.773Z,27.80
2018-07-24T20:46:00.779Z,27.80
2018-07-24T20:48:28.354Z,27.80
2018-07-24T20:50:55.924Z,27.80
2018-07-24T20:53:23.508Z,27.70
2018-07-24T20:55:52.484Z,27.60
2018-07-24T20:58:20.014Z,27.60
2018-07-24T21:00:47.617Z,27.60
2018-07-24T21:03:15.199Z,27.50
2018-07-24T21:05:44.634Z,26.20
2018-07-24T21:08:12.303Z,27.40
2018-07-24T21:10:39.885Z,27.40
2018-07-24T21:13:07.504Z,27.40
2018-07-24T21:15:35.044Z,27.40
2018-07-24T21:20:30.697Z,27.30
2018-07-24T21:22:58.268Z,27.20
2018-07-24T21:25:25.863Z,27.20
2018-07-24T21:27:53.390Z,26.60
2018-07-24T21:30:20.887Z,27.20
2018-07-24T21:32:49.072Z,27.20
2018-07-24T21:37:43.945Z,27.10
2018-07-24T21:40:11.649Z,27.00
2018-07-24T21:42:40.093Z,27.00
2018-07-24T21:45:07.714Z,26.50
2018-07-24T21:47:35.220Z,27.00
2018-07-24T21:50:02.881Z,26.80
2018-07-24T21:52:30.446Z,26.90
2018-07-24T21:54:57.993Z,26.90
2018-07-24T21:57:25.623Z,26.60
2018-07-24T21:59:53.106Z,26.80
2018-07-24T22:02:20.666Z,26.80
2018-07-24T22:04:48.202Z,26.70
2018-07-24T22:07:15.892Z,26.70
2018-07-24T22:09:43.385Z,26.70
2018-07-24T22:14:38.278Z,26.70
2018-07-24T22:17:18.312Z,26.60
2018-07-24T22:19:46.159Z,26.60
2018-07-24T22:22:13.615Z,26.50
2018-07-24T22:24:41.059Z,26.50
2018-07-24T22:27:08.572Z,26.50
2018-07-24T22:29:36.112Z,26.50
2018-07-24T22:32:03.647Z,26.50
2018-07-24T22:34:31.130Z,26.30
2018-07-24T22:36:58.568Z,26.40
2018-07-24T22:39:26.071Z,26.40
2018-07-24T22:44:20.998Z,26.30
2018-07-24T22:46:48.497Z,26.30
2018-07-24T22:49:15.972Z,26.30
2018-07-24T22:51:43.455Z,26.30
2018-07-24T22:54:10.973Z,26.30
2018-07-24T22:56:38.488Z,26.20
2018-07-24T22:59:05.952Z,26.30
2018-07-24T23:01:33.383Z,26.20
2018-07-24T23:04:00.835Z,26.20
2018-07-24T23:08:55.765Z,26.10
2018-07-24T23:11:23.278Z,26.00
2018-07-24T23:13:50.782Z,26.10
2018-07-24T23:16:18.295Z,26.10
2018-07-24T23:18:45.798Z,26.10
2018-07-24T23:21:13.284Z,26.10
2018-07-24T23:23:40.725Z,26.00
2018-07-24T23:26:08.162Z,26.00
2018-07-24T23:28:35.672Z,26.00
2018-07-24T23:31:03.256Z,26.00
2018-07-24T23:35:58.148Z,25.90
2018-07-24T23:38:25.656Z,25.90
2018-07-24T23:40:53.082Z,25.90
2018-07-24T23:43:20.606Z,25.80
2018-07-24T23:45:48.066Z,25.80
2018-07-24T23:48:15.592Z,25.80
2018-07-24T23:50:43.106Z,25.70
2018-07-24T23:55:37.992Z,25.70
2018-07-24T23:58:05.983Z,25.60
